createdAt,value
2018-05-26T00:00:23.261Z,2.60
2018-05-26T00:01:23.276Z,3.00
2018-05-26T00:02:23.292Z,2.60
2018-05-26T00:03:23.308Z,2.70
2018-05-26T00:04:23.325Z,3.00
2018-05-26T00:05:23.340Z,2.70
2018-05-26T00:06:23.358Z,3.00
2018-05-26T00:07:23.374Z,2.90
2018-05-26T00:08:23.390Z,2.80
2018-05-26T00:09:23.412Z,2.60
2018-05-26T00:10:23.422Z,2.90
2018-05-26T00:11:23.440Z,2.50
2018-05-26T00:12:23.458Z,3.10
2018-05-26T00:13:23.469Z,2.90
2018-05-26T00:14:23.487Z,2.50
2018-05-26T00:15:23.504Z,2.90
2018-05-26T00:16:23.526Z,3.10
2018-05-26T00:17:23.536Z,2.70
2018-05-26T00:18:23.553Z,2.70
2018-05-26T00:19:23.569Z,2.60
2018-05-26T00:20:23.584Z,2.80
2018-05-26T00:21:23.601Z,2.90
2018-05-26T00:22:23.617Z,2.80
2018-05-26T00:23:23.633Z,2.70
2018-05-26T00:24:23.648Z,2.70
2018-05-26T00:25:23.664Z,2.60
2018-05-26T00:26:23.681Z,2.60
2018-05-26T00:27:23.699Z,2.80
2018-05-26T00:28:23.715Z,2.80
2018-05-26T00:29:23.728Z,2.70
2018-05-26T00:30:23.747Z,2.60
2018-05-26T00:31:23.763Z,2.50
2018-05-26T00:32:23.779Z,2.40
2018-05-26T00:33:23.793Z,2.30
2018-05-26T00:34:23.810Z,2.50
2018-05-26T00:35:23.826Z,2.50
2018-05-26T00:36:23.842Z,2.60
2018-05-26T00:37:23.857Z,2.60
2018-05-26T00:38:23.876Z,3.00
2018-05-26T00:39:23.890Z,2.50
2018-05-26T00:40:23.906Z,2.60
2018-05-26T00:41:23.921Z,2.40
2018-05-26T00:42:23.942Z,2.70
2018-05-26T00:43:23.954Z,2.70
2018-05-26T00:44:23.970Z,2.80
2018-05-26T00:45:23.987Z,3.00
2018-05-26T00:46:24.002Z,2.60
2018-05-26T00:47:24.017Z,2.10
2018-05-26T00:48:24.034Z,2.80
2018-05-26T00:49:24.050Z,2.70
2018-05-26T00:50:24.065Z,2.70
2018-05-26T00:51:24.082Z,2.60
2018-05-26T00:52:24.100Z,2.80
2018-05-26T00:53:24.119Z,2.70
2018-05-26T00:54:24.133Z,2.60
2018-05-26T00:55:24.145Z,2.60
2018-05-26T00:56:24.163Z,2.60
2018-05-26T00:57:24.177Z,2.40
2018-05-26T00:58:24.193Z,2.50
2018-05-26T00:59:24.210Z,2.70
2018-05-26T01:00:24.227Z,2.50
2018-05-26T01:01:24.240Z,2.50
2018-05-26T01:02:24.256Z,2.80
2018-05-26T01:03:24.273Z,2.70
2018-05-26T01:04:24.291Z,2.90
2018-05-26T01:05:24.308Z,2.80
2018-05-26T01:06:24.323Z,2.80
2018-05-26T01:07:24.342Z,2.50
2018-05-26T01:08:24.354Z,3.00
2018-05-26T01:09:24.369Z,2.60
2018-05-26T01:10:24.387Z,2.70
2018-05-26T01:11:24.401Z,3.10
2018-05-26T01:12:24.418Z,2.30
2018-05-26T01:13:24.434Z,2.80
2018-05-26T01:14:24.455Z,2.80
2018-05-26T01:15:24.469Z,2.50
2018-05-26T01:16:24.483Z,2.90
2018-05-26T01:17:24.503Z,2.80
2018-05-26T01:18:24.513Z,2.70
2018-05-26T01:19:24.529Z,2.90
2018-05-26T01:20:24.546Z,3.10
2018-05-26T01:21:24.558Z,2.70
2018-05-26T01:22:24.576Z,2.70
2018-05-26T01:23:24.591Z,3.10
2018-05-26T01:24:24.608Z,2.50
2018-05-26T01:25:24.623Z,2.70
2018-05-26T01:26:24.639Z,2.50
2018-05-26T01:27:24.657Z,2.90
2018-05-26T01:28:24.672Z,2.30
2018-05-26T01:29:24.687Z,2.50
2018-05-26T01:30:24.703Z,2.70
2018-05-26T01:31:24.723Z,2.50
2018-05-26T01:32:24.734Z,2.60
2018-05-26T01:33:24.751Z,2.70
2018-05-26T01:34:24.774Z,2.50
2018-05-26T01:35:24.782Z,2.70
2018-05-26T01:36:24.804Z,2.60
2018-05-26T01:37:24.817Z,2.40
2018-05-26T01:38:24.831Z,2.50
2018-05-26T01:39:24.852Z,3.00
2018-05-26T01:40:24.863Z,3.00
2018-05-26T01:41:24.879Z,2.80
2018-05-26T01:42:24.894Z,2.80
2018-05-26T01:43:24.912Z,2.60
2018-05-26T01:44:24.932Z,2.70
2018-05-26T01:45:24.942Z,2.40
2018-05-26T01:46:24.957Z,3.20
2018-05-26T01:47:24.975Z,2.30
2018-05-26T01:48:24.992Z,2.90
2018-05-26T01:49:25.007Z,3.10
2018-05-26T01:50:25.023Z,2.40
2018-05-26T01:51:25.039Z,2.70
2018-05-26T01:52:25.056Z,2.40
2018-05-26T01:53:25.080Z,2.40
2018-05-26T01:54:25.131Z,2.40
2018-05-26T01:55:25.103Z,2.70
2018-05-26T01:56:25.120Z,2.90
2018-05-26T01:57:25.136Z,2.50
2018-05-26T01:58:25.153Z,3.00
2018-05-26T01:59:25.167Z,2.60
2018-05-26T02:00:25.185Z,2.50
2018-05-26T02:01:25.200Z,2.90
2018-05-26T02:02:25.216Z,3.00
2018-05-26T02:03:25.233Z,2.50
2018-05-26T02:04:25.248Z,2.60
2018-05-26T02:05:25.265Z,2.10
2018-05-26T02:06:25.287Z,2.60
2018-05-26T02:07:25.297Z,3.10
2018-05-26T02:08:25.314Z,2.40
2018-05-26T02:09:25.329Z,2.70
2018-05-26T02:10:25.345Z,2.30
2018-05-26T02:11:25.360Z,2.50
2018-05-26T02:12:25.377Z,2.70
2018-05-26T02:13:25.395Z,2.60
2018-05-26T02:14:25.408Z,2.50
2018-05-26T02:15:25.424Z,2.60
2018-05-26T02:16:25.443Z,2.60
2018-05-26T02:17:25.458Z,2.50
2018-05-26T02:18:25.476Z,2.80
2018-05-26T02:19:25.531Z,3.10
2018-05-26T02:20:25.508Z,2.80
2018-05-26T02:21:25.523Z,2.80
2018-05-26T02:22:25.540Z,2.70
2018-05-26T02:23:25.555Z,2.50
2018-05-26T02:24:25.571Z,2.70
2018-05-26T02:25:25.591Z,2.30
2018-05-26T02:26:25.602Z,2.80
2018-05-26T02:27:25.619Z,2.30
2018-05-26T02:28:25.636Z,2.60
2018-05-26T02:29:25.659Z,2.70
2018-05-26T02:30:25.669Z,2.40
2018-05-26T02:31:25.683Z,2.60
2018-05-26T02:32:25.701Z,2.60
2018-05-26T02:33:25.718Z,2.80
2018-05-26T02:34:25.732Z,2.50
2018-05-26T02:35:25.748Z,2.40
2018-05-26T02:36:25.764Z,2.70
2018-05-26T02:37:25.780Z,2.80
2018-05-26T02:38:25.835Z,2.90
2018-05-26T02:39:25.812Z,2.70
2018-05-26T02:40:25.830Z,2.40
2018-05-26T02:41:25.845Z,2.80
2018-05-26T02:42:25.859Z,2.80
2018-05-26T02:43:25.877Z,2.20
2018-05-26T02:44:25.893Z,2.70
2018-05-26T02:45:25.908Z,2.50
2018-05-26T02:46:25.934Z,2.40
2018-05-26T02:47:25.939Z,2.50
2018-05-26T02:48:25.957Z,2.80
2018-05-26T02:49:25.974Z,2.50
2018-05-26T02:50:25.987Z,2.30
2018-05-26T02:51:26.003Z,2.60
2018-05-26T02:52:26.018Z,2.30
2018-05-26T02:53:26.035Z,2.70
2018-05-26T02:54:26.050Z,2.50
2018-05-26T02:55:26.065Z,2.40
2018-05-26T02:56:26.088Z,2.90
2018-05-26T02:57:26.097Z,2.70
2018-05-26T02:58:26.113Z,2.60
2018-05-26T02:59:26.130Z,2.70
2018-05-26T03:00:26.147Z,2.80
2018-05-26T03:01:26.162Z,2.70
2018-05-26T03:02:26.176Z,2.40
2018-05-26T03:03:26.193Z,2.40
2018-05-26T03:04:26.208Z,2.50
2018-05-26T03:05:26.222Z,2.60
2018-05-26T03:06:26.245Z,2.70
2018-05-26T03:07:26.256Z,2.40
2018-05-26T03:08:26.273Z,2.90
2018-05-26T03:09:26.288Z,2.50
2018-05-26T03:10:26.303Z,2.30
2018-05-26T03:11:26.318Z,2.60
2018-05-26T03:12:26.335Z,2.50
2018-05-26T03:13:26.348Z,2.20
2018-05-26T03:14:26.365Z,2.50
2018-05-26T03:15:26.381Z,2.50
2018-05-26T03:16:26.397Z,2.60
2018-05-26T03:17:26.414Z,2.60
2018-05-26T03:18:26.428Z,2.60
2018-05-26T03:19:26.445Z,2.20
2018-05-26T03:20:26.461Z,2.30
2018-05-26T03:21:26.474Z,2.60
2018-05-26T03:22:26.489Z,2.30
2018-05-26T03:23:26.504Z,2.40
2018-05-26T03:24:26.566Z,2.60
2018-05-26T03:25:26.536Z,2.60
2018-05-26T03:26:26.555Z,2.40
2018-05-26T03:27:26.568Z,2.60
2018-05-26T03:28:26.586Z,2.80
2018-05-26T03:29:26.598Z,2.60
2018-05-26T03:30:26.619Z,2.50
2018-05-26T03:31:26.631Z,2.40
2018-05-26T03:32:26.648Z,2.40
2018-05-26T03:33:26.661Z,2.40
2018-05-26T03:34:26.678Z,2.30
2018-05-26T03:35:26.693Z,2.60
2018-05-26T03:36:26.815Z,2.40
2018-05-26T03:37:26.726Z,2.80
2018-05-26T03:38:26.740Z,2.50
2018-05-26T03:39:26.754Z,2.60
2018-05-26T03:40:26.771Z,2.60
2018-05-26T03:41:26.787Z,2.70
2018-05-26T03:42:26.800Z,2.80
2018-05-26T03:43:26.817Z,2.70
2018-05-26T03:44:26.832Z,2.70
2018-05-26T03:45:26.848Z,2.80
2018-05-26T03:46:26.864Z,3.00
2018-05-26T03:47:26.879Z,23.40
2018-05-26T03:48:26.895Z,38.80
2018-05-26T03:49:26.910Z,15.30
2018-05-26T03:50:26.927Z,6.40
2018-05-26T03:51:26.943Z,3.50
2018-05-26T03:52:26.960Z,3.00
2018-05-26T03:53:26.987Z,2.60
2018-05-26T03:54:26.989Z,2.30
2018-05-26T03:55:27.006Z,2.80
2018-05-26T03:56:27.022Z,2.80
2018-05-26T03:57:27.036Z,3.20
2018-05-26T03:58:27.051Z,2.80
2018-05-26T03:59:27.068Z,2.50
2018-05-26T04:00:27.082Z,3.00
2018-05-26T04:01:27.098Z,2.80
2018-05-26T04:02:27.112Z,2.60
2018-05-26T04:03:27.127Z,2.60
2018-05-26T04:04:27.143Z,2.70
2018-05-26T04:05:27.158Z,2.70
2018-05-26T04:06:27.177Z,2.50
2018-05-26T04:07:27.190Z,2.90
2018-05-26T04:08:27.205Z,2.90
2018-05-26T04:09:27.220Z,3.40
2018-05-26T04:10:27.237Z,2.80
2018-05-26T04:11:27.251Z,2.70
2018-05-26T04:12:27.268Z,3.00
2018-05-26T04:13:27.281Z,3.60
2018-05-26T04:14:27.297Z,3.60
2018-05-26T04:15:27.312Z,3.00
2018-05-26T04:16:27.329Z,2.70
2018-05-26T04:17:27.346Z,2.80
2018-05-26T04:18:27.359Z,2.70
2018-05-26T04:19:27.372Z,2.70
2018-05-26T04:20:27.387Z,2.60
2018-05-26T04:21:27.402Z,2.70
2018-05-26T04:22:27.420Z,3.00
2018-05-26T04:23:27.435Z,2.40
2018-05-26T04:24:27.450Z,2.80
2018-05-26T04:25:27.463Z,3.10
2018-05-26T04:26:27.478Z,2.60
2018-05-26T04:27:27.495Z,2.60
2018-05-26T04:28:27.509Z,2.70
2018-05-26T04:29:27.522Z,2.60
2018-05-26T04:30:27.544Z,2.50
2018-05-26T04:31:27.554Z,2.60
2018-05-26T04:32:27.574Z,2.80
2018-05-26T04:33:27.585Z,2.60
2018-05-26T04:34:27.601Z,2.80
2018-05-26T04:35:27.674Z,3.10
2018-05-26T04:36:27.630Z,2.80
2018-05-26T04:37:27.649Z,2.80
2018-05-26T04:38:27.660Z,2.80
2018-05-26T04:39:27.676Z,2.80
2018-05-26T04:40:27.691Z,2.70
2018-05-26T04:41:27.707Z,2.40
2018-05-26T04:42:27.722Z,2.60
2018-05-26T04:43:27.737Z,2.50
2018-05-26T04:44:27.753Z,2.90
2018-05-26T04:45:27.766Z,2.90
2018-05-26T04:46:27.788Z,3.20
2018-05-26T04:47:27.797Z,2.70
2018-05-26T04:48:27.812Z,2.80
2018-05-26T04:49:27.827Z,2.60
2018-05-26T04:50:27.842Z,2.60
2018-05-26T04:51:27.858Z,2.80
2018-05-26T04:52:27.874Z,2.50
2018-05-26T04:53:27.887Z,3.00
2018-05-26T04:54:27.901Z,2.50
2018-05-26T04:55:27.921Z,3.00
2018-05-26T04:56:27.932Z,2.70
2018-05-26T04:57:27.958Z,3.20
2018-05-26T04:58:27.963Z,2.70
2018-05-26T04:59:27.980Z,2.50
2018-05-26T05:00:27.993Z,2.80
2018-05-26T05:01:28.010Z,3.30
2018-05-26T05:02:28.024Z,3.20
2018-05-26T05:03:28.038Z,2.90
2018-05-26T05:04:28.064Z,3.10
2018-05-26T05:05:28.070Z,2.80
2018-05-26T05:06:28.084Z,3.00
2018-05-26T05:07:28.104Z,3.00
2018-05-26T05:08:28.117Z,3.10
2018-05-26T05:09:28.131Z,2.70
2018-05-26T05:10:28.145Z,3.10
2018-05-26T05:11:28.165Z,2.70
2018-05-26T05:12:28.179Z,2.70
2018-05-26T05:13:28.194Z,3.10
2018-05-26T05:14:28.207Z,2.40
2018-05-26T05:15:28.223Z,2.60
2018-05-26T05:16:28.238Z,2.40
2018-05-26T05:17:28.253Z,3.20
2018-05-26T05:18:28.275Z,3.20
2018-05-26T05:19:28.284Z,3.30
2018-05-26T05:20:28.299Z,3.50
2018-05-26T05:21:28.360Z,2.80
2018-05-26T05:22:28.331Z,2.90
2018-05-26T05:23:28.345Z,2.60
2018-05-26T05:24:28.367Z,3.00
2018-05-26T05:25:28.377Z,2.50
2018-05-26T05:26:28.392Z,2.90
2018-05-26T05:27:28.410Z,2.90
2018-05-26T05:28:28.425Z,3.00
2018-05-26T05:29:28.439Z,2.60
2018-05-26T05:30:28.457Z,3.40
2018-05-26T05:31:28.471Z,3.00
2018-05-26T05:32:28.499Z,2.80
2018-05-26T05:33:28.505Z,3.20
2018-05-26T05:34:28.519Z,3.10
2018-05-26T05:35:28.536Z,3.00
2018-05-26T05:36:28.551Z,3.20
2018-05-26T05:37:28.585Z,2.90
2018-05-26T05:38:28.582Z,2.60
2018-05-26T05:39:28.598Z,3.10
2018-05-26T05:40:28.612Z,2.90
2018-05-26T05:41:28.638Z,3.10
2018-05-26T05:42:28.648Z,3.40
2018-05-26T05:43:28.661Z,3.00
2018-05-26T05:44:28.677Z,2.90
2018-05-26T05:45:28.692Z,3.10
2018-05-26T05:46:28.709Z,3.00
2018-05-26T05:47:28.726Z,2.80
2018-05-26T05:48:28.742Z,3.30
2018-05-26T05:49:28.756Z,2.90
2018-05-26T05:50:28.773Z,2.70
2018-05-26T05:51:28.790Z,2.80
2018-05-26T05:52:28.806Z,3.10
2018-05-26T05:53:28.821Z,2.80
2018-05-26T05:54:28.836Z,2.60
2018-05-26T05:55:28.853Z,2.80
2018-05-26T05:56:28.921Z,3.00
2018-05-26T05:57:28.884Z,3.10
2018-05-26T05:58:28.900Z,2.90
2018-05-26T05:59:28.917Z,3.20
2018-05-26T06:00:28.937Z,3.10
2018-05-26T06:01:28.950Z,2.80
2018-05-26T06:02:28.966Z,2.80
2018-05-26T06:03:28.983Z,2.50
2018-05-26T06:04:28.998Z,3.00
2018-05-26T06:05:29.016Z,2.90
2018-05-26T06:06:29.032Z,2.80
2018-05-26T06:07:29.049Z,3.10
2018-05-26T06:08:29.063Z,3.00
2018-05-26T06:09:29.081Z,3.10
2018-05-26T06:10:29.100Z,3.00
2018-05-26T06:11:29.114Z,3.20
2018-05-26T06:12:29.130Z,3.00
2018-05-26T06:13:29.146Z,3.40
2018-05-26T06:14:29.161Z,3.30
2018-05-26T06:15:29.249Z,3.50
2018-05-26T06:16:29.195Z,3.70
2018-05-26T06:17:29.210Z,3.40
2018-05-26T06:18:29.229Z,3.10
2018-05-26T06:19:29.251Z,3.60
2018-05-26T06:20:29.261Z,3.40
2018-05-26T06:21:29.277Z,3.50
2018-05-26T06:22:29.292Z,3.10
2018-05-26T06:23:29.310Z,2.70
2018-05-26T06:24:29.327Z,3.20
2018-05-26T06:25:29.342Z,2.90
2018-05-26T06:26:29.420Z,3.00
2018-05-26T06:27:29.374Z,2.80
2018-05-26T06:28:29.391Z,2.90
2018-05-26T06:29:29.408Z,2.80
2018-05-26T06:30:29.428Z,3.10
2018-05-26T06:31:29.445Z,3.20
2018-05-26T06:32:29.458Z,3.40
2018-05-26T06:33:29.474Z,3.00
2018-05-26T06:34:29.489Z,2.90
2018-05-26T06:35:29.507Z,2.80
2018-05-26T06:36:29.524Z,3.10
2018-05-26T06:37:29.536Z,3.10
2018-05-26T06:38:29.557Z,3.10
2018-05-26T06:39:29.573Z,2.80
2018-05-26T06:40:29.589Z,3.80
2018-05-26T06:41:29.607Z,2.80
2018-05-26T06:42:29.627Z,3.40
2018-05-26T06:43:29.638Z,2.70
2018-05-26T06:44:29.655Z,3.70
2018-05-26T06:45:29.671Z,3.40
2018-05-26T06:46:29.688Z,3.10
2018-05-26T06:47:29.705Z,3.30
2018-05-26T06:48:29.721Z,3.30
2018-05-26T06:49:29.738Z,3.30
2018-05-26T06:50:29.755Z,3.20
2018-05-26T06:51:29.772Z,4.00
2018-05-26T06:52:29.788Z,3.50
2018-05-26T06:53:29.804Z,3.20
2018-05-26T06:54:29.820Z,3.30
2018-05-26T06:55:29.837Z,3.10
2018-05-26T06:56:29.853Z,2.80
2018-05-26T06:57:29.871Z,3.20
2018-05-26T06:58:29.890Z,3.10
2018-05-26T06:59:29.907Z,3.30
2018-05-26T07:00:29.918Z,2.90
2018-05-26T07:01:29.936Z,3.10
2018-05-26T07:02:29.954Z,3.00
2018-05-26T07:03:29.969Z,3.50
2018-05-26T07:04:29.985Z,2.90
2018-05-26T07:05:30.003Z,3.50
2018-05-26T07:06:30.020Z,2.90
2018-05-26T07:07:30.035Z,2.80
2018-05-26T07:08:30.054Z,3.30
2018-05-26T07:09:30.068Z,2.70
2018-05-26T07:10:30.086Z,3.10
2018-05-26T07:11:30.102Z,3.10
2018-05-26T07:12:30.120Z,3.20
2018-05-26T07:13:30.136Z,3.40
2018-05-26T07:14:30.157Z,3.30
2018-05-26T07:15:30.171Z,3.00
2018-05-26T07:16:30.189Z,2.70
2018-05-26T07:17:30.204Z,3.00
2018-05-26T07:18:30.221Z,2.90
2018-05-26T07:19:30.239Z,2.90
2018-05-26T07:20:30.255Z,2.90
2018-05-26T07:21:30.275Z,3.00
2018-05-26T07:22:30.288Z,2.80
2018-05-26T07:23:30.306Z,3.40
2018-05-26T07:24:30.325Z,3.40
2018-05-26T07:25:30.341Z,3.50
2018-05-26T07:26:30.356Z,2.90
2018-05-26T07:27:30.374Z,3.10
2018-05-26T07:28:30.391Z,3.00
2018-05-26T07:29:30.408Z,2.80
2018-05-26T07:30:30.426Z,3.40
2018-05-26T07:31:30.444Z,3.10
2018-05-26T07:32:30.459Z,2.90
2018-05-26T07:33:30.478Z,2.80
2018-05-26T07:34:30.493Z,2.70
2018-05-26T07:35:30.512Z,3.30
2018-05-26T07:36:30.528Z,2.80
2018-05-26T07:37:30.543Z,2.80
2018-05-26T07:38:30.562Z,2.80
2018-05-26T07:39:30.579Z,3.10
2018-05-26T07:40:30.597Z,3.00
2018-05-26T07:41:30.612Z,3.10
2018-05-26T07:42:30.630Z,4.00
2018-05-26T07:43:30.647Z,3.30
2018-05-26T07:44:30.665Z,3.30
2018-05-26T07:45:30.680Z,2.90
2018-05-26T07:46:30.703Z,3.30
2018-05-26T07:47:30.717Z,2.70
2018-05-26T07:48:30.735Z,2.90
2018-05-26T07:49:30.755Z,3.30
2018-05-26T07:50:30.769Z,3.10
2018-05-26T07:51:30.784Z,3.60
2018-05-26T07:52:30.804Z,2.90
2018-05-26T07:53:30.856Z,3.30
2018-05-26T07:54:30.837Z,3.40
2018-05-26T07:55:30.895Z,3.00
2018-05-26T07:56:30.875Z,3.80
2018-05-26T07:57:30.892Z,3.00
2018-05-26T07:58:30.921Z,3.10
2018-05-26T07:59:30.926Z,3.30
2018-05-26T08:00:30.959Z,3.00
2018-05-26T08:01:30.960Z,3.50
2018-05-26T08:02:30.978Z,2.80
2018-05-26T08:03:30.994Z,3.40
2018-05-26T08:04:31.013Z,3.30
2018-05-26T08:05:31.029Z,3.40
2018-05-26T08:06:31.048Z,3.20
2018-05-26T08:07:31.065Z,3.50
2018-05-26T08:08:31.083Z,2.90
2018-05-26T08:09:31.100Z,3.20
2018-05-26T08:10:31.122Z,3.10
2018-05-26T08:11:31.138Z,3.00
2018-05-26T08:12:31.153Z,3.20
2018-05-26T08:13:31.172Z,3.10
2018-05-26T08:14:31.193Z,3.30
2018-05-26T08:15:31.206Z,3.30
2018-05-26T08:16:31.226Z,3.20
2018-05-26T08:17:31.240Z,3.20
2018-05-26T08:18:31.260Z,3.10
2018-05-26T08:19:31.279Z,3.10
2018-05-26T08:20:31.295Z,3.20
2018-05-26T08:21:31.313Z,3.80
2018-05-26T08:22:31.330Z,3.30
2018-05-26T08:23:31.348Z,3.00
2018-05-26T08:24:31.367Z,2.70
2018-05-26T08:25:31.384Z,2.90
2018-05-26T08:26:31.404Z,3.10
2018-05-26T08:27:31.422Z,3.60
2018-05-26T08:28:31.440Z,3.50
2018-05-26T08:29:31.460Z,3.20
2018-05-26T08:30:31.475Z,3.10
2018-05-26T08:31:31.493Z,3.10
2018-05-26T08:32:31.511Z,3.60
2018-05-26T08:33:31.531Z,3.10
2018-05-26T08:34:31.549Z,3.60
2018-05-26T08:35:31.565Z,3.10
2018-05-26T08:36:31.592Z,3.60
2018-05-26T08:37:31.608Z,3.30
2018-05-26T08:38:31.621Z,3.10
2018-05-26T08:39:31.639Z,3.20
2018-05-26T08:40:31.657Z,3.30
2018-05-26T08:41:31.675Z,3.40
2018-05-26T08:42:31.693Z,3.40
2018-05-26T08:43:31.716Z,2.80
2018-05-26T08:44:31.730Z,3.10
2018-05-26T08:45:31.759Z,3.10
2018-05-26T08:46:31.768Z,2.90
2018-05-26T08:47:31.785Z,3.60
2018-05-26T08:48:31.805Z,3.50
2018-05-26T08:49:31.821Z,3.60
2018-05-26T08:50:31.841Z,3.30
2018-05-26T08:51:31.862Z,3.40
2018-05-26T08:52:31.877Z,3.30
2018-05-26T08:53:31.897Z,3.20
2018-05-26T08:54:31.914Z,3.30
2018-05-26T08:55:31.935Z,3.70
2018-05-26T08:56:31.953Z,3.40
2018-05-26T08:57:31.971Z,3.50
2018-05-26T08:58:31.990Z,4.50
2018-05-26T08:59:32.009Z,3.20
2018-05-26T09:00:32.029Z,3.40
2018-05-26T09:01:32.046Z,3.30
2018-05-26T09:02:32.067Z,3.40
2018-05-26T09:03:32.141Z,3.20
2018-05-26T09:04:32.105Z,3.80
2018-05-26T09:05:32.121Z,3.10
2018-05-26T09:06:32.145Z,3.10
2018-05-26T09:07:32.164Z,3.20
2018-05-26T09:08:32.183Z,3.20
2018-05-26T09:09:32.202Z,3.40
2018-05-26T09:10:32.220Z,3.40
2018-05-26T09:11:32.241Z,3.40
2018-05-26T09:12:32.259Z,3.10
2018-05-26T09:13:32.280Z,2.90
2018-05-26T09:14:32.298Z,3.30
2018-05-26T09:15:32.316Z,3.30
2018-05-26T09:16:32.339Z,3.50
2018-05-26T09:17:32.356Z,3.10
2018-05-26T09:18:32.375Z,3.00
2018-05-26T09:19:32.399Z,3.10
2018-05-26T09:20:32.416Z,3.40
2018-05-26T09:21:32.435Z,3.00
2018-05-26T09:22:32.457Z,3.50
2018-05-26T09:23:32.478Z,3.60
2018-05-26T09:24:32.494Z,3.70
2018-05-26T09:25:32.533Z,3.50
2018-05-26T09:26:32.535Z,3.10
2018-05-26T09:27:32.553Z,4.00
2018-05-26T09:28:32.581Z,3.20
2018-05-26T09:29:32.594Z,3.30
2018-05-26T09:30:32.610Z,3.20
2018-05-26T09:31:32.633Z,3.20
2018-05-26T09:32:32.654Z,3.20
2018-05-26T09:33:32.673Z,3.30
2018-05-26T09:34:32.692Z,3.20
2018-05-26T09:35:32.712Z,3.70
2018-05-26T09:36:32.734Z,3.30
2018-05-26T09:37:32.753Z,3.40
2018-05-26T09:38:32.776Z,3.30
2018-05-26T09:39:32.791Z,3.50
2018-05-26T09:40:32.812Z,3.00
2018-05-26T09:41:32.831Z,3.10
2018-05-26T09:42:32.852Z,3.00
2018-05-26T09:43:32.872Z,3.30
2018-05-26T09:44:32.900Z,3.00
2018-05-26T09:45:32.913Z,3.00
2018-05-26T09:46:32.934Z,3.20
2018-05-26T09:47:32.954Z,2.90
2018-05-26T09:48:32.975Z,3.10
2018-05-26T09:49:32.996Z,3.30
2018-05-26T09:50:33.019Z,3.10
2018-05-26T09:51:33.035Z,3.10
2018-05-26T09:52:33.054Z,3.00
2018-05-26T09:53:33.081Z,3.20
2018-05-26T09:54:33.095Z,3.20
2018-05-26T09:55:33.116Z,3.30
2018-05-26T09:56:33.143Z,3.10
2018-05-26T09:57:33.155Z,3.00
2018-05-26T09:58:33.177Z,3.00
2018-05-26T09:59:33.196Z,3.20
2018-05-26T10:00:33.218Z,3.30
2018-05-26T10:01:33.236Z,3.40
2018-05-26T10:02:33.259Z,3.00
2018-05-26T10:03:33.279Z,3.10
2018-05-26T10:04:33.300Z,3.60
2018-05-26T10:05:33.320Z,3.40
2018-05-26T10:06:33.342Z,3.20
2018-05-26T10:07:33.360Z,3.10
2018-05-26T10:08:33.379Z,3.20
2018-05-26T10:09:33.399Z,3.80
2018-05-26T10:10:33.419Z,3.10
2018-05-26T10:11:33.443Z,3.10
2018-05-26T10:12:33.462Z,3.20
2018-05-26T10:13:33.502Z,2.90
2018-05-26T10:14:33.502Z,2.80
2018-05-26T10:15:33.522Z,2.90
2018-05-26T10:16:33.546Z,2.90
2018-05-26T10:17:33.563Z,3.00
2018-05-26T10:18:33.584Z,3.10
2018-05-26T10:19:33.606Z,2.80
2018-05-26T10:20:33.626Z,3.80
2018-05-26T10:21:33.645Z,3.50
2018-05-26T10:22:33.665Z,3.70
2018-05-26T10:23:33.685Z,3.90
2018-05-26T10:24:33.707Z,4.30
2018-05-26T10:25:33.728Z,4.10
2018-05-26T10:26:33.749Z,4.70
2018-05-26T10:27:33.768Z,3.10
2018-05-26T10:28:33.789Z,2.80
2018-05-26T10:29:33.811Z,3.20
2018-05-26T10:30:33.843Z,3.40
2018-05-26T10:31:33.853Z,3.00
2018-05-26T10:32:33.873Z,3.20
2018-05-26T10:33:33.893Z,3.40
2018-05-26T10:34:33.914Z,3.20
2018-05-26T10:35:33.980Z,3.20
2018-05-26T10:36:33.953Z,3.20
2018-05-26T10:37:33.978Z,2.70
2018-05-26T10:38:33.999Z,3.00
2018-05-26T10:39:34.020Z,2.60
2018-05-26T10:40:34.040Z,2.80
2018-05-26T10:41:34.059Z,3.20
2018-05-26T10:42:34.081Z,3.20
2018-05-26T10:43:34.103Z,2.80
2018-05-26T10:44:34.123Z,3.30
2018-05-26T10:45:34.147Z,3.20
2018-05-26T10:46:34.165Z,2.80
2018-05-26T10:47:34.186Z,2.70
2018-05-26T10:48:34.207Z,3.20
2018-05-26T10:49:34.227Z,3.20
2018-05-26T10:50:34.252Z,2.70
2018-05-26T10:51:34.270Z,3.30
2018-05-26T10:52:34.291Z,3.20
2018-05-26T10:53:34.312Z,3.00
2018-05-26T10:54:34.334Z,3.30
2018-05-26T10:55:34.355Z,2.90
2018-05-26T10:56:34.377Z,2.70
2018-05-26T10:57:34.397Z,3.00
2018-05-26T10:58:34.423Z,3.40
2018-05-26T10:59:34.442Z,3.30
2018-05-26T11:00:34.462Z,3.00
2018-05-26T11:01:34.484Z,3.30
2018-05-26T11:02:34.506Z,3.30
2018-05-26T11:03:34.528Z,2.90
2018-05-26T11:04:34.549Z,2.80
2018-05-26T11:05:34.572Z,3.20
2018-05-26T11:06:34.594Z,3.10
2018-05-26T11:07:34.615Z,3.30
2018-05-26T11:08:34.636Z,3.10
2018-05-26T11:09:34.658Z,3.20
2018-05-26T11:10:34.680Z,3.00
2018-05-26T11:11:34.702Z,3.20
2018-05-26T11:12:34.724Z,3.10
2018-05-26T11:13:34.752Z,2.90
2018-05-26T11:14:34.789Z,3.30
2018-05-26T11:15:34.793Z,3.40
2018-05-26T11:16:34.809Z,3.50
2018-05-26T11:17:34.833Z,2.90
2018-05-26T11:18:34.853Z,3.10
2018-05-26T11:19:34.874Z,3.00
2018-05-26T11:20:34.895Z,3.50
2018-05-26T11:21:34.916Z,3.20
2018-05-26T11:22:34.942Z,3.20
2018-05-26T11:23:35.063Z,3.60
2018-05-26T11:24:35.052Z,3.60
2018-05-26T11:25:35.016Z,3.10
2018-05-26T11:26:35.025Z,3.10
2018-05-26T11:27:35.048Z,3.40
2018-05-26T11:28:35.068Z,3.50
2018-05-26T11:29:35.100Z,3.60
2018-05-26T11:30:35.115Z,3.20
2018-05-26T11:31:35.132Z,3.50
2018-05-26T11:32:35.153Z,3.50
2018-05-26T11:33:35.174Z,4.00
2018-05-26T11:34:35.199Z,3.30
2018-05-26T11:35:35.219Z,3.30
2018-05-26T11:36:35.240Z,3.30
2018-05-26T11:37:35.262Z,3.30
2018-05-26T11:38:35.283Z,3.00
2018-05-26T11:39:35.305Z,3.30
2018-05-26T11:40:35.331Z,3.20
2018-05-26T11:41:35.345Z,3.40
2018-05-26T11:42:35.368Z,2.90
2018-05-26T11:43:35.446Z,3.10
2018-05-26T11:44:35.413Z,3.60
2018-05-26T11:45:35.434Z,3.10
2018-05-26T11:46:35.455Z,3.70
2018-05-26T11:47:35.482Z,3.20
2018-05-26T11:48:35.499Z,3.40
2018-05-26T11:49:35.518Z,3.20
2018-05-26T11:50:35.542Z,3.30
2018-05-26T11:51:35.563Z,3.60
2018-05-26T11:52:35.592Z,3.60
2018-05-26T11:53:35.605Z,3.70
2018-05-26T11:54:35.628Z,3.40
2018-05-26T11:55:35.650Z,3.50
2018-05-26T11:56:35.669Z,3.30
2018-05-26T11:57:35.699Z,3.00
2018-05-26T11:58:35.713Z,2.80
2018-05-26T11:59:35.737Z,3.80
2018-05-26T12:00:35.760Z,3.10
2018-05-26T12:01:35.779Z,3.60
2018-05-26T12:02:35.801Z,3.80
2018-05-26T12:03:35.827Z,3.80
2018-05-26T12:04:35.845Z,4.00
2018-05-26T12:05:35.864Z,4.10
2018-05-26T12:06:35.888Z,3.30
2018-05-26T12:07:35.908Z,3.50
2018-05-26T12:08:35.933Z,3.40
2018-05-26T12:09:35.953Z,3.60
2018-05-26T12:10:35.973Z,3.50
2018-05-26T12:11:35.996Z,3.60
2018-05-26T12:12:36.019Z,4.00
2018-05-26T12:13:36.038Z,3.80
2018-05-26T12:14:36.065Z,3.70
2018-05-26T12:15:36.084Z,3.50
2018-05-26T12:16:36.106Z,4.10
2018-05-26T12:17:36.126Z,3.70
2018-05-26T12:18:36.146Z,4.30
2018-05-26T12:19:36.169Z,3.70
2018-05-26T12:20:36.192Z,3.40
2018-05-26T12:21:36.214Z,3.50
2018-05-26T12:22:36.235Z,3.50
2018-05-26T12:23:36.260Z,3.40
2018-05-26T12:24:36.281Z,3.90
2018-05-26T12:25:36.303Z,3.50
2018-05-26T12:26:36.327Z,4.00
2018-05-26T12:27:36.346Z,3.50
2018-05-26T12:28:36.367Z,3.80
2018-05-26T12:29:36.390Z,3.80
2018-05-26T12:30:36.411Z,3.70
2018-05-26T12:31:36.434Z,3.60
2018-05-26T12:32:36.457Z,3.60
2018-05-26T12:33:36.481Z,3.20
2018-05-26T12:34:36.501Z,3.50
2018-05-26T12:35:36.525Z,3.80
2018-05-26T12:36:36.546Z,3.70
2018-05-26T12:37:36.567Z,4.30
2018-05-26T12:38:36.591Z,3.30
2018-05-26T12:39:36.614Z,3.50
2018-05-26T12:40:36.635Z,3.70
2018-05-26T12:41:36.656Z,3.90
2018-05-26T12:42:36.680Z,3.50
2018-05-26T12:43:36.700Z,3.20
2018-05-26T12:44:36.724Z,3.80
2018-05-26T12:45:36.745Z,4.30
2018-05-26T12:46:36.768Z,3.80
2018-05-26T12:47:36.790Z,3.60
2018-05-26T12:48:36.815Z,3.70
2018-05-26T12:49:36.834Z,3.40
2018-05-26T12:50:36.857Z,4.30
2018-05-26T12:51:36.879Z,4.30
2018-05-26T12:52:36.901Z,3.70
2018-05-26T12:53:36.922Z,3.70
2018-05-26T12:54:36.948Z,3.40
2018-05-26T12:55:36.969Z,4.00
2018-05-26T12:56:36.991Z,4.70
2018-05-26T12:57:37.010Z,4.00
2018-05-26T12:58:37.034Z,3.80
2018-05-26T12:59:37.059Z,3.90
2018-05-26T13:00:37.079Z,3.90
2018-05-26T13:01:37.103Z,3.60
2018-05-26T13:02:37.124Z,4.30
2018-05-26T13:03:37.143Z,4.40
2018-05-26T13:04:37.168Z,3.90
2018-05-26T13:05:37.190Z,4.10
2018-05-26T13:06:37.213Z,3.70
2018-05-26T13:07:37.234Z,4.00
2018-05-26T13:08:37.256Z,4.60
2018-05-26T13:09:37.280Z,4.00
2018-05-26T13:10:37.302Z,3.90
2018-05-26T13:11:37.323Z,3.70
2018-05-26T13:12:37.346Z,4.10
2018-05-26T13:13:37.368Z,3.90
2018-05-26T13:14:37.390Z,4.00
2018-05-26T13:15:37.411Z,3.80
2018-05-26T13:16:37.433Z,4.10
2018-05-26T13:17:37.457Z,3.70
2018-05-26T13:18:37.482Z,3.80